Time;durP1;ratioP1;P1;durP2;ratioP2;P2;SDS_P1;SDS_P2;PMS_P1;PMS_P2;Temp;Humidity;BMP_temperature;BMP_pressure;BME280_temperature;BME280_humidity;BME280_pressure;Samples;Min_cycle;Max_cycle;Signal;HPM_P1;HPM_P2
2021/03/02 00:00:30;;;;;;;8.35;4.74;;;;;;;4.14;67.42;100598.78;2031510;76;20968;-69
2021/03/02 00:03:33;;;;;;;4.78;3.61;;;;;;;4.12;68.21;100602.97;2036335;79;20327;-69
2021/03/02 00:06:36;;;;;;;6.22;4.20;;;;;;;3.98;68.00;100605.81;2036045;79;20434;-69
2021/03/02 00:09:39;;;;;;;6.36;3.94;;;;;;;3.96;68.15;100600.63;2036496;79;20374;-70
2021/03/02 00:12:58;;;;;;;6.70;4.36;;;;;;;3.88;68.34;100604.53;2036156;79;20340;-69
2021/03/02 00:16:02;;;;;;;6.50;4.71;;;;;;;3.97;69.19;100607.50;2033544;76;20321;-69
2021/03/02 00:19:14;;;;;;;5.75;3.81;;;;;;;4.01;69.31;100608.50;2031249;79;20347;-69
2021/03/02 00:22:24;;;;;;;5.64;3.99;;;;;;;3.94;68.90;100600.53;2031148;79;20327;-69
2021/03/02 00:25:36;;;;;;;8.91;4.00;;;;;;;3.88;69.07;100607.97;2031214;79;20305;-69
2021/03/02 00:28:39;;;;;;;7.11;3.94;;;;;;;3.73;68.95;100609.03;2030599;79;20367;-69
2021/03/02 00:31:42;;;;;;;7.00;4.21;;;;;;;3.57;69.24;100610.06;2033337;79;21905;-69
2021/03/02 00:34:44;;;;;;;6.30;4.13;;;;;;;3.54;69.33;100608.25;2078489;68;20298;-69
2021/03/02 00:37:48;;;;;;;8.79;5.14;;;;;;;3.66;70.19;100605.34;2030325;79;20347;-70
2021/03/02 00:40:51;;;;;;;7.85;4.99;;;;;;;3.72;69.84;100604.69;2030525;79;20838;-70
2021/03/02 00:43:53;;;;;;;6.24;4.54;;;;;;;3.65;69.64;100608.72;2031424;79;20341;-70
2021/03/02 00:46:55;;;;;;;7.05;4.20;;;;;;;3.55;70.54;100606.56;2026453;77;20306;-70
2021/03/02 00:49:56;;;;;;;5.29;3.88;;;;;;;3.51;70.39;100612.38;2024856;79;20335;-70
2021/03/02 00:52:58;;;;;;;7.71;4.38;;;;;;;3.48;70.99;100609.69;2025413;79;20396;-70
2021/03/02 00:56:00;;;;;;;5.65;4.46;;;;;;;3.35;70.91;100603.13;2025606;79;20331;-69
2021/03/02 00:59:02;;;;;;;8.75;4.39;;;;;;;3.30;70.99;100609.75;2025059;79;20328;-70
2021/03/02 01:02:04;;;;;;;8.93;4.43;;;;;;;3.22;71.53;100614.53;2023669;77;21224;-70
2021/03/02 01:05:08;;;;;;;7.20;4.24;;;;;;;3.25;71.68;100613.81;2025140;79;20987;-70
2021/03/02 01:08:10;;;;;;;7.59;4.16;;;;;;;3.33;71.74;100613.31;2025635;79;20853;-69
2021/03/02 01:11:12;;;;;;;6.31;4.30;;;;;;;3.19;71.49;100616.97;2025236;79;20310;-71
2021/03/02 01:14:14;;;;;;;6.11;4.01;;;;;;;3.13;71.46;100616.69;2025090;79;20311;-70
2021/03/02 01:17:16;;;;;;;5.88;4.15;;;;;;;3.05;71.05;100612.88;2024390;77;44908;-70
2021/03/02 01:20:18;;;;;;;5.68;3.74;;;;;;;2.77;71.17;100615.91;2025429;79;20332;-70
2021/03/02 01:23:19;;;;;;;6.78;4.00;;;;;;;2.65;71.63;100618.75;2025272;79;20344;-70
2021/03/02 01:26:21;;;;;;;9.13;3.90;;;;;;;2.54;71.20;100617.41;2025291;79;20334;-70
2021/03/02 01:29:23;;;;;;;5.80;3.72;;;;;;;2.35;71.32;100618.22;2025631;79;20322;-69
2021/03/02 01:32:24;;;;;;;5.09;4.09;;;;;;;2.18;71.34;100616.50;2024819;76;20510;-70
2021/03/02 01:35:27;;;;;;;5.70;3.47;;;;;;;2.08;71.23;100615.16;2029654;79;20330;-70
2021/03/02 01:38:28;;;;;;;6.15;3.86;;;;;;;1.90;71.69;100615.94;2030675;79;20337;-69
2021/03/02 01:41:30;;;;;;;5.89;3.76;;;;;;;1.81;71.81;100614.69;2030770;79;20351;-69
2021/03/02 01:44:31;;;;;;;5.80;3.70;;;;;;;1.79;72.12;100615.41;2030243;79;20441;-69
2021/03/02 01:47:33;;;;;;;5.54;3.54;;;;;;;1.70;72.27;100617.50;2025156;78;21960;-69
2021/03/02 01:50:35;;;;;;;6.43;3.94;;;;;;;1.62;72.29;100613.69;2024810;79;20363;-69
2021/03/02 01:53:37;;;;;;;5.13;3.45;;;;;;;1.55;72.50;100614.16;2025290;79;20467;-69
2021/03/02 01:56:39;;;;;;;4.88;4.03;;;;;;;1.38;72.75;100608.19;2025254;79;20366;-70
2021/03/02 01:59:41;;;;;;;5.11;3.46;;;;;;;1.34;73.11;100608.84;2025256;79;20315;-69
2021/03/02 02:02:50;;;;;;;5.43;3.76;;;;;;;1.32;73.13;100618.13;2028984;77;20321;-69
2021/03/02 02:06:00;;;;;;;4.56;2.94;;;;;;;1.26;73.34;100613.56;2030683;79;20359;-70
2021/03/02 02:09:08;;;;;;;7.60;3.88;;;;;;;1.21;73.29;100613.28;2030385;79;20655;-69
2021/03/02 02:12:16;;;;;;;6.57;3.36;;;;;;;1.17;73.10;100607.94;2030488;79;20306;-70
2021/03/02 02:15:24;;;;;;;5.16;3.36;;;;;;;1.09;73.31;100599.88;2028372;77;20341;-70
2021/03/02 02:18:33;;;;;;;5.61;3.81;;;;;;;1.05;73.39;100610.72;2025595;79;20231;-69
2021/03/02 02:22:13;;;;;;;5.61;3.72;;;;;;;0.97;73.73;100616.25;2024603;79;20338;-70
2021/03/02 02:25:26;;;;;;;6.68;3.10;;;;;;;0.93;73.84;100610.09;2018814;80;20334;-70
2021/03/02 02:28:31;;;;;;;4.82;3.63;;;;;;;0.85;73.63;100603.69;2024742;79;20323;-69
2021/03/02 02:31:34;;;;;;;6.75;3.56;;;;;;;0.80;74.02;100613.66;2027205;77;21425;-69
2021/03/02 02:34:37;;;;;;;6.00;3.84;;;;;;;0.78;74.00;100617.81;2030023;79;21115;-69
2021/03/02 02:37:40;;;;;;;4.39;3.46;;;;;;;0.70;74.19;100613.06;2030618;79;20804;-69
2021/03/02 02:40:43;;;;;;;6.75;4.00;;;;;;;0.65;74.24;100609.41;2030608;79;20317;-69
2021/03/02 02:43:48;;;;;;;7.94;3.56;;;;;;;0.60;74.27;100611.72;2030662;79;20310;-69
2021/03/02 02:46:53;;;;;;;5.04;3.81;;;;;;;0.58;73.99;100606.50;2029083;77;21501;-69
2021/03/02 02:49:55;;;;;;;6.64;4.07;;;;;;;0.57;74.34;100612.44;2029813;79;20361;-69
2021/03/02 02:52:58;;;;;;;6.31;3.66;;;;;;;0.54;74.60;100609.72;2030481;79;20302;-69
2021/03/02 02:56:02;;;;;;;5.84;3.94;;;;;;;0.50;74.61;100610.31;2033244;79;20355;-69
2021/03/02 02:59:22;;;;;;;4.38;3.28;;;;;;;0.44;74.77;100609.97;2030109;79;20763;-69
2021/03/02 03:02:27;;;;;;;4.41;3.16;;;;;;;0.42;74.80;100618.38;2026389;77;20332;-69
2021/03/02 03:05:30;;;;;;;6.00;3.71;;;;;;;0.34;75.11;100617.91;2026758;79;20358;-69
2021/03/02 03:08:33;;;;;;;5.34;3.29;;;;;;;0.31;75.30;100617.75;2026940;79;20735;-69
2021/03/02 03:11:45;;;;;;;4.54;3.28;;;;;;;0.27;75.23;100615.81;2026849;79;20879;-69
2021/03/02 03:14:54;;;;;;;6.46;3.72;;;;;;;0.21;75.34;100618.94;2026888;79;20372;-69
2021/03/02 03:17:58;;;;;;;4.46;3.49;;;;;;;0.18;75.51;100617.84;2030828;77;23072;-69
2021/03/02 03:21:01;;;;;;;5.80;3.54;;;;;;;0.18;75.28;100613.66;2032597;79;20454;-69
2021/03/02 03:24:03;;;;;;;6.97;3.97;;;;;;;0.19;75.06;100609.41;2031661;79;20343;-69
2021/03/02 03:27:05;;;;;;;5.30;4.00;;;;;;;0.16;74.92;100610.09;2033237;79;20337;-69
2021/03/02 03:30:09;;;;;;;5.91;3.99;;;;;;;0.13;75.27;100614.16;2031308;79;20331;-69
2021/03/02 03:33:14;;;;;;;6.20;4.07;;;;;;;0.06;75.32;100622.28;2026797;77;21166;-69
2021/03/02 03:36:16;;;;;;;5.50;3.96;;;;;;;-0.01;75.62;100610.81;2027461;79;20332;-69
2021/03/02 03:39:17;;;;;;;6.36;3.92;;;;;;;0.01;75.65;100609.25;2026923;79;20314;-69
2021/03/02 03:42:19;;;;;;;6.81;3.80;;;;;;;-0.04;75.76;100608.97;2027069;79;20419;-69
2021/03/02 03:45:36;;;;;;;7.63;3.99;;;;;;;-0.06;75.87;100617.34;2027051;79;26895;-69
2021/03/02 03:48:38;;;;;;;5.59;3.55;;;;;;;-0.07;75.99;100618.13;2032451;79;20385;-69
2021/03/02 03:51:42;;;;;;;6.65;4.14;;;;;;;-0.14;76.14;100619.47;2032724;79;20339;-69
2021/03/02 03:54:47;;;;;;;6.36;4.14;;;;;;;-0.15;75.77;100612.59;2031543;79;20424;-69
2021/03/02 03:57:49;;;;;;;6.47;4.11;;;;;;;-0.13;75.67;100613.56;2031782;79;20335;-69
2021/03/02 04:00:52;;;;;;;6.56;4.18;;;;;;;-0.12;75.94;100612.78;2031327;77;20374;-69
2021/03/02 04:03:54;;;;;;;7.56;4.53;;;;;;;-0.17;75.93;100619.28;2031350;79;20339;-67
2021/03/02 04:06:57;;;;;;;7.31;4.31;;;;;;;-0.17;75.82;100620.97;2030774;79;20338;-67
2021/03/02 04:10:00;;;;;;;7.71;4.05;;;;;;;-0.20;75.46;100621.66;2031401;79;20355;-67
2021/03/02 04:13:09;;;;;;;4.99;3.61;;;;;;;-0.23;75.36;100623.16;2030469;79;20290;-67
2021/03/02 04:16:11;;;;;;;;;;;;;;;-0.27;75.24;100627.19;2028021;77;21751;-67
2021/03/02 04:19:13;;;;;;;6.90;3.68;;;;;;;-0.35;75.12;100624.22;2025819;79;20066;-67
2021/03/02 04:22:14;;;;;;;5.56;3.91;;;;;;;-0.36;75.26;100625.00;2025710;79;20206;-67
2021/03/02 04:25:16;;;;;;;9.16;3.67;;;;;;;-0.35;75.54;100624.22;2025158;79;20492;-68
2021/03/02 04:28:18;;;;;;;5.32;3.63;;;;;;;-0.38;75.74;100629.09;2028006;79;20380;-67
2021/03/02 04:31:20;;;;;;;6.00;3.90;;;;;;;-0.39;75.73;100631.56;2029337;77;27120;-67
2021/03/02 04:34:21;;;;;;;6.22;4.44;;;;;;;-0.42;75.87;100631.38;2032727;79;20350;-67
2021/03/02 04:37:23;;;;;;;6.47;3.94;;;;;;;-0.46;76.38;100635.44;2033306;79;20330;-67
2021/03/02 04:40:25;;;;;;;6.43;4.06;;;;;;;-0.49;76.16;100632.72;2032572;79;20412;-67
2021/03/02 04:43:27;;;;;;;7.19;4.25;;;;;;;-0.54;75.88;100640.84;2033666;79;20310;-67
2021/03/02 04:46:28;;;;;;;8.10;4.41;;;;;;;-0.57;75.72;100639.00;2029208;77;20315;-67
2021/03/02 04:49:30;;;;;;;5.43;3.76;;;;;;;-0.58;75.54;100642.34;2027540;79;20441;-67
2021/03/02 04:52:32;;;;;;;5.81;3.91;;;;;;;-0.57;76.03;100639.00;2027239;79;20335;-67
2021/03/02 04:55:33;;;;;;;6.69;4.13;;;;;;;-0.57;76.08;100645.78;2027332;79;20715;-67
2021/03/02 04:58:35;;;;;;;5.91;4.26;;;;;;;-0.62;75.97;100643.84;2027712;79;20274;-67
2021/03/02 05:01:37;;;;;;;6.21;4.09;;;;;;;-0.66;75.89;100648.69;2029618;77;21304;-66
2021/03/02 05:04:39;;;;;;;8.39;4.65;;;;;;;-0.69;75.96;100651.06;2033507;79;20334;-67
2021/03/02 05:07:40;;;;;;;8.04;4.44;;;;;;;-0.72;76.44;100646.66;2033061;79;20751;-67
2021/03/02 05:10:42;;;;;;;5.66;3.81;;;;;;;-0.73;76.80;100659.28;2032799;79;20343;-67
2021/03/02 05:13:46;;;;;;;6.59;3.86;;;;;;;-0.76;76.83;100651.44;2033336;79;20330;-67
2021/03/02 05:16:48;;;;;;;7.11;4.37;;;;;;;-0.75;76.82;100655.75;2028755;77;20987;-67
2021/03/02 05:19:50;;;;;;;6.70;4.03;;;;;;;-0.80;76.99;100657.16;2027429;79;20815;-67
2021/03/02 05:22:51;;;;;;;7.84;3.91;;;;;;;-0.84;76.83;100660.31;2027741;79;20732;-67
2021/03/02 05:25:53;;;;;;;5.74;4.32;;;;;;;-0.87;76.70;100658.47;2026734;79;21441;-67
2021/03/02 05:28:57;;;;;;;6.45;4.29;;;;;;;-0.88;76.65;100664.34;2027714;79;20307;-67
2021/03/02 05:31:59;;;;;;;8.31;5.09;;;;;;;-0.89;76.67;100664.25;2030403;77;20306;-69
2021/03/02 05:35:01;;;;;;;7.29;3.97;;;;;;;-0.93;76.55;100665.72;2032920;79;20313;-68
2021/03/02 05:38:02;;;;;;;6.24;4.17;;;;;;;-0.94;76.58;100661.41;2032874;79;20313;-68
2021/03/02 05:41:04;;;;;;;7.00;4.04;;;;;;;-0.96;76.88;100668.06;2033082;79;20207;-67
2021/03/02 05:44:09;;;;;;;5.79;4.28;;;;;;;-1.00;77.29;100667.00;2033264;79;20193;-67
2021/03/02 05:47:11;;;;;;;8.99;4.47;;;;;;;-1.04;77.40;100662.53;2026048;77;20288;-67
2021/03/02 05:50:14;;;;;;;6.38;4.54;;;;;;;-1.03;77.09;100658.31;2025321;79;20358;-67
2021/03/02 05:53:16;;;;;;;10.80;4.81;;;;;;;-1.04;77.04;100654.88;2025151;79;20583;-67
2021/03/02 05:56:18;;;;;;;6.57;3.83;;;;;;;-1.02;77.10;100657.50;2024926;79;20199;-69
2021/03/02 05:59:19;;;;;;;6.79;4.93;;;;;;;-1.05;76.96;100660.75;2025608;79;20342;-69
2021/03/02 06:02:21;;;;;;;5.03;3.71;;;;;;;-1.08;76.85;100672.41;2028225;77;20920;-69
2021/03/02 06:05:23;;;;;;;6.47;4.09;;;;;;;-1.12;76.63;100663.69;2030556;79;20941;-70
2021/03/02 06:08:25;;;;;;;7.10;4.07;;;;;;;-1.14;76.53;100672.03;2030863;79;20327;-69
2021/03/02 06:11:35;;;;;;;5.32;3.89;;;;;;;-1.14;76.76;100670.38;2029994;79;20318;-70
2021/03/02 06:14:37;;;;;;;6.59;4.12;;;;;;;-1.11;76.96;100669.66;2030659;79;21299;-69
2021/03/02 06:17:38;;;;;;;9.26;4.64;;;;;;;-1.13;76.93;100677.22;2025006;77;20178;-69
2021/03/02 06:20:41;;;;;;;6.10;4.22;;;;;;;-1.13;77.00;100686.53;2024720;79;20452;-69
2021/03/02 06:23:49;;;;;;;8.32;5.37;;;;;;;-1.16;76.98;100684.69;2025179;79;20350;-69
2021/03/02 06:27:08;;;;;;;7.54;3.99;;;;;;;-1.17;76.83;100680.38;2025389;79;20206;-67
2021/03/02 06:30:13;;;;;;;6.26;4.20;;;;;;;-1.16;76.69;100682.13;2024261;79;20746;-67
2021/03/02 06:33:18;;;;;;;9.00;4.02;;;;;;;-1.18;76.73;100688.81;2025055;79;20217;-67
2021/03/02 06:36:19;;;;;;;9.24;4.03;;;;;;;-1.19;76.86;100686.16;2025251;79;20190;-67
2021/03/02 06:39:23;;;;;;;8.04;4.12;;;;;;;-1.20;76.72;100695.47;2023601;79;20200;-67
2021/03/02 06:42:26;;;;;;;7.12;4.22;;;;;;;-1.16;76.92;100697.41;2023036;80;21315;-66
2021/03/02 06:45:27;;;;;;;6.68;4.10;;;;;;;-1.11;77.22;100697.69;2022079;77;20214;-67
2021/03/02 06:48:31;;;;;;;10.04;5.01;;;;;;;-1.06;77.33;100702.31;2022334;80;20866;-66
2021/03/02 06:51:38;;;;;;;7.96;4.68;;;;;;;-0.99;77.42;100704.44;2023095;80;20375;-67
2021/03/02 06:54:40;;;;;;;6.80;4.54;;;;;;;-0.98;77.43;100707.88;2127325;68;20209;-67
2021/03/02 06:57:43;;;;;;;6.24;3.87;;;;;;;-0.94;77.48;100714.94;2039310;79;20180;-69
2021/03/02 07:00:50;;;;;;;8.39;4.93;;;;;;;-0.87;78.06;100722.19;2036936;76;20620;-69
2021/03/02 07:04:08;;;;;;;9.65;4.60;;;;;;;-0.78;78.08;100726.97;2037869;79;20176;-67
2021/03/02 07:07:14;;;;;;;7.94;4.69;;;;;;;-0.69;78.05;100719.91;2039034;79;20355;-67
2021/03/02 07:10:16;;;;;;;9.18;4.61;;;;;;;-0.63;78.27;100731.34;2037940;79;20319;-67
2021/03/02 07:13:18;;;;;;;9.29;5.38;;;;;;;-0.52;78.62;100731.13;2038985;79;20835;-66
2021/03/02 07:16:20;;;;;;;12.57;5.72;;;;;;;-0.46;78.72;100732.38;2041428;76;20355;-66
2021/03/02 07:19:23;;;;;;;7.66;5.31;;;;;;;-0.40;78.93;100735.28;2044001;79;20467;-65
2021/03/02 07:22:28;;;;;;;8.95;5.54;;;;;;;-0.36;78.89;100741.47;2044465;79;20422;-72
2021/03/02 07:25:31;;;;;;;9.74;6.13;;;;;;;-0.26;79.09;100748.91;2043815;79;20364;-67
2021/03/02 07:28:36;;;;;;;10.04;6.47;;;;;;;-0.08;78.86;100749.13;2043974;79;20334;-67
2021/03/02 07:31:40;;;;;;;9.71;6.15;;;;;;;0.11;78.77;100748.53;2039904;77;22642;-67
2021/03/02 07:34:47;;;;;;;10.94;6.60;;;;;;;0.27;78.47;100743.53;2039690;79;20348;-67
2021/03/02 07:37:49;;;;;;;11.14;6.88;;;;;;;0.49;77.99;100746.53;2041399;79;20341;-68
2021/03/02 07:40:55;;;;;;;8.54;5.75;;;;;;;0.79;77.49;100743.97;2041335;79;20329;-68
2021/03/02 07:43:57;;;;;;;9.35;6.15;;;;;;;1.14;76.85;100746.78;2041627;79;20321;-71
2021/03/02 07:46:59;;;;;;;9.32;6.41;;;;;;;1.50;75.90;100753.03;2042835;76;35464;-69
2021/03/02 07:50:25;;;;;;;10.70;6.45;;;;;;;1.85;75.06;100743.75;2046677;79;20342;-67
2021/03/02 07:53:27;;;;;;;7.93;5.50;;;;;;;2.21;73.89;100738.75;2047301;79;20314;-68
2021/03/02 07:56:28;;;;;;;10.68;6.00;;;;;;;2.52;72.72;100739.50;2047086;79;20322;-69
2021/03/02 07:59:30;;;;;;;8.82;5.81;;;;;;;2.87;71.82;100748.91;2047918;79;20330;-69
2021/03/02 08:02:32;;;;;;;10.04;6.55;;;;;;;3.24;71.08;100743.81;2042344;76;20349;-80
2021/03/02 08:05:34;;;;;;;10.32;6.09;;;;;;;3.66;70.08;100738.88;2042738;78;20335;-81
2021/03/02 08:08:37;;;;;;;10.84;6.20;;;;;;;4.07;69.19;100745.84;2045204;79;20421;-72
2021/03/02 08:11:40;;;;;;;8.38;5.80;;;;;;;4.53;68.33;100756.38;2042198;79;21060;-81
2021/03/02 08:14:42;;;;;;;8.01;6.05;;;;;;;5.02;67.49;100755.78;2042925;79;20348;-73
2021/03/02 08:17:43;;;;;;;8.84;5.95;;;;;;;5.45;66.38;100754.91;2045524;76;21079;-72
2021/03/02 08:21:17;;;;;;;8.49;5.94;;;;;;;5.89;65.59;100753.94;2047410;79;20322;-73
2021/03/02 08:24:54;;;;;;;8.95;5.89;;;;;;;6.43;64.83;100753.28;2046641;79;20302;-74
2021/03/02 08:27:59;;;;;;;9.46;5.50;;;;;;;6.91;63.40;100757.50;2045506;79;20338;-74
2021/03/02 08:31:11;;;;;;;8.93;5.29;;;;;;;7.36;62.40;100759.78;2042071;77;24810;-72
2021/03/02 08:34:18;;;;;;;7.97;5.49;;;;;;;7.81;62.11;100761.97;2039761;79;20390;-72
2021/03/02 08:37:56;;;;;;;10.11;6.07;;;;;;;8.20;60.92;100775.13;2040189;79;20443;-71
2021/03/02 08:40:58;;;;;;;9.44;5.74;;;;;;;8.56;59.82;100769.22;2040597;79;20304;-71
2021/03/02 08:44:00;;;;;;;7.47;6.00;;;;;;;8.88;58.90;100770.91;2041119;79;20494;-74
2021/03/02 08:47:03;;;;;;;8.01;5.88;;;;;;;9.13;57.72;100774.94;2043549;77;21848;-74
2021/03/02 08:50:05;;;;;;;7.82;5.90;;;;;;;9.45;57.63;100778.28;2045621;79;21052;-72
2021/03/02 08:53:30;;;;;;;10.09;5.95;;;;;;;9.74;56.81;100775.47;2046849;79;20233;-72
2021/03/02 08:56:32;;;;;;;7.88;5.76;;;;;;;10.02;55.81;100775.16;2046421;79;20548;-73
2021/03/02 08:59:34;;;;;;;8.13;5.90;;;;;;;10.19;53.71;100776.38;2043941;79;20197;-73
2021/03/02 09:02:41;;;;;;;8.52;6.26;;;;;;;10.35;53.89;100774.97;2046281;76;21389;-73
2021/03/02 09:05:43;;;;;;;8.45;6.78;;;;;;;10.56;52.79;100777.97;2046624;79;20171;-74
2021/03/02 09:08:58;;;;;;;8.45;6.74;;;;;;;10.73;52.35;100780.84;2046446;79;20199;-72
2021/03/02 09:12:00;;;;;;;8.11;6.00;;;;;;;10.73;51.03;100780.84;2046507;79;21273;-72
2021/03/02 09:15:02;;;;;;;8.71;6.69;;;;;;;10.88;51.14;100778.53;2046371;79;20175;-72
2021/03/02 09:18:16;;;;;;;7.29;5.75;;;;;;;11.12;50.71;100777.16;2041583;77;21868;-73
2021/03/02 09:21:22;;;;;;;9.74;6.82;;;;;;;11.42;50.41;100775.03;2040529;79;20334;-72
2021/03/02 09:24:27;;;;;;;10.07;6.96;;;;;;;11.63;49.52;100776.19;2042032;79;20174;-76
2021/03/02 09:27:32;;;;;;;11.18;7.43;;;;;;;11.83;49.38;100777.34;2042183;79;20160;-75
2021/03/02 09:30:34;;;;;;;8.10;6.51;;;;;;;11.91;47.96;100780.94;2040336;76;20272;-75
2021/03/02 09:33:37;;;;;;;9.20;6.93;;;;;;;12.03;48.12;100778.50;2046318;79;20184;-74
2021/03/02 09:36:40;;;;;;;7.63;6.65;;;;;;;12.21;47.65;100780.44;2045751;79;20366;-74
2021/03/02 09:39:54;;;;;;;9.85;6.59;;;;;;;12.30;47.80;100777.03;2045093;79;20204;-75
2021/03/02 09:42:57;;;;;;;9.68;6.71;;;;;;;12.49;47.77;100776.38;2044722;79;20630;-75
2021/03/02 09:45:59;;;;;;;9.76;6.69;;;;;;;12.46;46.71;100778.06;2041810;76;22062;-75
2021/03/02 09:49:01;;;;;;;9.21;7.15;;;;;;;12.54;46.30;100772.06;2040121;79;21105;-75
2021/03/02 09:52:08;;;;;;;10.11;7.06;;;;;;;12.69;46.18;100773.94;2040448;79;20255;-75
2021/03/02 09:55:21;;;;;;;10.90;7.25;;;;;;;12.81;46.25;100762.78;2040779;79;20190;-73
2021/03/02 09:58:23;;;;;;;10.57;6.61;;;;;;;12.86;45.78;100771.50;2040697;79;20193;-73
2021/03/02 10:01:27;;;;;;;8.21;7.21;;;;;;;13.04;45.76;100765.56;2040257;76;22678;-74
2021/03/02 10:04:29;;;;;;;11.44;6.97;;;;;;;13.25;45.47;100766.63;2145978;68;21242;-74
2021/03/02 10:07:43;;;;;;;11.15;7.72;;;;;;;13.49;45.00;100765.03;2030650;79;20178;-75
2021/03/02 10:10:45;;;;;;;8.79;6.99;;;;;;;13.59;44.27;100770.31;2026474;79;20194;-75
2021/03/02 10:13:49;;;;;;;9.46;7.30;;;;;;;13.52;43.65;100765.94;2027803;79;20170;-75
2021/03/02 10:16:54;;;;;;;9.70;6.70;;;;;;;13.49;43.73;100765.03;2027952;77;20297;-72
2021/03/02 10:20:07;;;;;;;8.41;6.64;;;;;;;13.59;43.73;100767.69;2026279;79;20173;-73
2021/03/02 10:23:13;;;;;;;10.00;6.99;;;;;;;13.76;43.50;100770.38;2030038;79;20195;-73
2021/03/02 10:26:24;;;;;;;12.93;7.65;;;;;;;13.88;43.28;100767.84;2030629;79;20165;-73
2021/03/02 10:29:27;;;;;;;10.41;7.24;;;;;;;14.08;43.05;100774.88;2028942;79;20659;-73
2021/03/02 10:32:29;;;;;;;10.90;7.01;;;;;;;14.32;42.94;100774.06;2028268;77;20617;-73
2021/03/02 10:35:30;;;;;;;11.18;7.40;;;;;;;14.47;42.49;100771.53;2028569;79;20239;-72
2021/03/02 10:38:32;;;;;;;12.01;7.94;;;;;;;14.52;41.07;100775.88;2029067;79;20222;-73
2021/03/02 10:41:34;;;;;;;10.80;8.01;;;;;;;14.46;41.70;100772.41;2028524;79;20544;-73
2021/03/02 10:44:36;;;;;;;11.86;7.49;;;;;;;14.47;41.43;100761.94;2028459;79;20213;-72
2021/03/02 10:47:38;;;;;;;10.15;6.64;;;;;;;14.41;41.15;100761.91;2033381;76;20768;-73
2021/03/02 10:50:45;;;;;;;10.38;7.30;;;;;;;14.67;41.81;100766.34;2034170;79;20312;-74
2021/03/02 10:53:48;;;;;;;11.98;7.55;;;;;;;14.79;41.36;100762.00;2037402;79;20222;-73
2021/03/02 10:56:49;;;;;;;9.90;6.76;;;;;;;15.09;41.25;100766.34;2033811;79;20173;-72
2021/03/02 10:59:51;;;;;;;11.91;7.47;;;;;;;15.31;41.18;100766.31;2034209;79;20250;-73
2021/03/02 11:02:52;;;;;;;10.29;6.70;;;;;;;15.53;40.54;100761.91;2033992;77;22614;-72
2021/03/02 11:05:56;;;;;;;10.56;7.25;;;;;;;15.60;39.55;100759.28;2034147;79;20306;-72
2021/03/02 11:08:58;;;;;;;12.18;7.63;;;;;;;15.60;39.19;100753.19;2034588;79;20165;-73
2021/03/02 11:12:00;;;;;;;11.13;7.79;;;;;;;15.79;39.55;100757.47;2034170;79;20220;-72
2021/03/02 11:15:02;;;;;;;12.01;7.86;;;;;;;15.87;38.53;100753.09;2133269;68;20190;-77
2021/03/02 11:18:04;;;;;;;11.48;6.96;;;;;;;15.97;38.99;100748.66;2027914;77;21894;-71
2021/03/02 11:21:12;;;;;;;9.98;7.05;;;;;;;16.15;38.69;100750.34;2028118;79;20697;-73
2021/03/02 11:24:13;;;;;;;8.93;6.69;;;;;;;16.16;38.53;100741.63;2132241;68;20225;-71
2021/03/02 11:27:15;;;;;;;11.27;7.46;;;;;;;16.37;38.40;100744.09;2035352;79;20161;-73
2021/03/02 11:30:17;;;;;;;8.76;6.94;;;;;;;16.38;37.75;100734.50;2033207;76;20221;-71
2021/03/02 11:33:19;;;;;;;11.26;7.11;;;;;;;16.30;37.55;100730.16;2035866;79;20192;-74
2021/03/02 11:36:21;;;;;;;13.26;7.45;;;;;;;16.54;38.17;100721.28;2039504;79;20188;-74
2021/03/02 11:39:22;;;;;;;10.27;6.95;;;;;;;16.73;37.52;100736.91;2040371;79;20196;-72
2021/03/02 11:42:25;;;;;;;15.05;7.64;;;;;;;16.91;37.43;100723.63;2039961;79;20230;-73
2021/03/02 11:45:29;;;;;;;19.94;8.51;;;;;;;16.95;36.44;100719.22;2037014;76;23808;-73
2021/03/02 11:48:31;;;;;;;13.59;8.77;;;;;;;17.17;36.90;100720.75;2026196;79;20314;-72
2021/03/02 11:51:33;;;;;;;13.40;7.80;;;;;;;17.27;36.35;100705.78;2028203;79;20177;-71
2021/03/02 11:54:34;;;;;;;12.36;7.15;;;;;;;17.41;36.50;100704.72;2125925;68;20212;-73
2021/03/02 11:57:36;;;;;;;9.21;6.82;;;;;;;17.56;36.05;100701.03;2023436;79;20196;-73
2021/03/02 12:00:38;;;;;;;12.23;6.75;;;;;;;17.51;35.54;100693.22;2023723;77;22487;-74
2021/03/02 12:03:50;;;;;;;11.29;7.34;;;;;;;17.72;35.71;100693.88;2024887;79;20213;-74
2021/03/02 12:06:52;;;;;;;9.29;7.00;;;;;;;17.83;35.10;100689.38;2028959;79;20215;-74
2021/03/02 12:09:54;;;;;;;9.71;7.32;;;;;;;17.97;34.76;100679.56;2028051;79;20170;-73
2021/03/02 12:12:55;;;;;;;11.90;6.53;;;;;;;17.98;33.53;100677.78;2028258;79;20187;-73
2021/03/02 12:15:57;;;;;;;8.65;6.56;;;;;;;18.04;34.57;100686.44;2024348;77;20290;-71
2021/03/02 12:18:59;;;;;;;13.09;7.07;;;;;;;18.04;33.77;100685.56;2023047;79;20174;-71
2021/03/02 12:22:01;;;;;;;9.93;6.94;;;;;;;18.17;33.71;100683.66;2023543;79;21193;-71
2021/03/02 12:25:03;;;;;;;9.89;6.50;;;;;;;18.23;33.84;100679.16;2023455;79;20202;-70
2021/03/02 12:28:06;;;;;;;14.14;7.22;;;;;;;18.45;34.15;100679.69;2023736;79;20182;-71
2021/03/02 12:31:08;;;;;;;11.05;6.78;;;;;;;18.54;33.70;100682.19;2024627;77;20203;-72
2021/03/02 12:34:11;;;;;;;10.55;7.45;;;;;;;18.50;32.44;100674.38;2028860;79;20193;-71
2021/03/02 12:37:12;;;;;;;12.54;7.26;;;;;;;18.52;33.10;100673.47;2028842;79;20197;-71
2021/03/02 12:40:14;;;;;;;12.34;7.55;;;;;;;18.60;33.07;100676.81;2029130;79;20718;-71
2021/03/02 12:43:15;;;;;;;9.86;6.75;;;;;;;18.78;32.58;100674.81;2028241;79;20221;-71
2021/03/02 12:46:17;;;;;;;16.34;6.81;;;;;;;18.84;32.85;100664.16;2024908;77;20204;-73
2021/03/02 12:49:18;;;;;;;15.43;7.21;;;;;;;18.93;32.67;100662.25;2023311;79;20166;-73
2021/03/02 12:52:21;;;;;;;9.27;6.59;;;;;;;18.97;32.30;100655.16;2022917;79;20614;-73
2021/03/02 12:55:23;;;;;;;18.70;6.96;;;;;;;18.99;32.08;100656.84;2028574;79;20666;-73
2021/03/02 12:58:25;;;;;;;10.06;5.95;;;;;;;19.04;32.30;100656.78;2033401;79;20185;-74
2021/03/02 13:01:30;;;;;;;9.00;6.01;;;;;;;19.10;31.96;100656.66;2032704;76;23543;-75
2021/03/02 13:04:32;;;;;;;11.46;6.49;;;;;;;19.12;31.48;100652.22;2034294;79;20645;-76
2021/03/02 13:07:35;;;;;;;10.73;6.43;;;;;;;19.11;31.56;100639.97;2032912;79;21218;-78
2021/03/02 13:10:37;;;;;;;12.94;6.16;;;;;;;19.18;31.36;100645.97;2033680;79;20663;-76
2021/03/02 13:13:41;;;;;;;14.93;6.31;;;;;;;19.19;31.16;100635.41;2034803;79;20781;-77
2021/03/02 13:16:43;;;;;;;12.68;6.09;;;;;;;19.33;31.62;100635.13;2080296;68;21503;-79
2021/03/02 13:19:46;;;;;;;9.39;6.18;;;;;;;19.41;31.37;100635.00;2030053;79;20215;-77
2021/03/02 13:22:47;;;;;;;8.65;5.07;;;;;;;19.40;30.53;100620.09;2027706;79;20696;-78
2021/03/02 13:25:51;;;;;;;10.29;6.46;;;;;;;19.42;30.66;100627.06;2029730;79;20173;-78
2021/03/02 13:28:56;;;;;;;10.71;4.99;;;;;;;19.37;29.83;100620.13;2031861;79;20181;-78
2021/03/02 13:31:59;;;;;;;11.68;5.71;;;;;;;19.34;30.61;100621.06;2028076;77;20189;-77
2021/03/02 13:35:02;;;;;;;10.85;5.85;;;;;;;19.46;30.55;100619.94;2027415;79;20271;-77
2021/03/02 13:38:05;;;;;;;12.93;5.75;;;;;;;19.51;30.48;100620.72;2027165;79;20178;-77
2021/03/02 13:41:08;;;;;;;12.25;5.45;;;;;;;19.37;30.01;100615.72;2028320;79;20215;-78
2021/03/02 13:44:19;;;;;;;15.63;5.21;;;;;;;19.32;30.17;100607.06;2031032;79;20224;-78
2021/03/02 13:47:21;;;;;;;11.13;6.06;;;;;;;19.36;30.27;100616.63;2030150;77;20977;-78
2021/03/02 13:50:24;;;;;;;12.69;5.32;;;;;;;19.32;29.96;100607.94;2030830;79;20803;-78
2021/03/02 13:53:28;;;;;;;14.65;6.40;;;;;;;19.33;30.08;100608.78;2030007;79;20229;-76
2021/03/02 13:56:30;;;;;;;13.76;5.35;;;;;;;19.22;30.05;100606.41;2030203;79;20870;-78
2021/03/02 13:59:32;;;;;;;11.31;6.28;;;;;;;19.33;30.24;100604.41;2030386;79;20195;-77
2021/03/02 14:02:35;;;;;;;11.05;5.64;;;;;;;19.34;30.08;100607.91;2025443;77;20192;-77
2021/03/02 14:05:37;;;;;;;9.31;5.46;;;;;;;19.35;30.49;100601.72;2026687;79;20228;-78
2021/03/02 14:08:41;;;;;;;10.66;4.70;;;;;;;19.37;30.02;100594.66;2026815;79;20199;-77
2021/03/02 14:11:43;;;;;;;13.79;5.51;;;;;;;19.39;30.31;100599.88;2026090;79;20188;-78
2021/03/02 14:14:45;;;;;;;9.64;5.14;;;;;;;19.39;30.08;100599.88;2026439;79;20174;-77
2021/03/02 14:17:51;;;;;;;10.27;4.93;;;;;;;19.40;30.71;100606.91;2029026;77;20203;-77